Airfield :
LOGIN :

Register | Disclaimer

   EN    FR    IT 

 










Legend :    VFR   Marginal VFR   IFR   Intensive IFR   Very Intensive IFR
Visi :
Ceiling :
>= 8 km
>= 3000ft
5 to 8 km
1000 to 3000 ft
1500m to 5 km
500 to 1000 ft
800 to 1500m
200 to 500 ft
< 800m
< 200 ft
Symbols :   Thunderstorms  Fog  Heavy snow  Heavy precipitations  Wind > 20 kt
SIGMETs :     Misc.  Thunderstorms  Icing  Turbulence  Mountain Waves  Volcanic Ashes







- Airport Elevation : 359 ft
- IATA code : DEB


LHDC - Debrecen

CURRENT METAR :
  • 230815Z AUTO 03009KT 340V060 CAVOK 25/16 Q1024 NOSIG

EXPIRED METARs :
  • 230745Z AUTO 01010KT CAVOK 24/16 Q1024 NOSIG
  • 230715Z AUTO 02010KT 340V050 CAVOK 23/16 Q1024 NOSIG
  • 230645Z AUTO 02010KT 350V050 CAVOK 22/15 Q1024 NOSIG
  • 230615Z AUTO 02011KT 340V050 CAVOK 21/15 Q1023 NOSIG
  • 230545Z AUTO 04009KT CAVOK 20/15 Q1023 NOSIG

TAF TAF LHDC
Valid from the 23 at 09:00 until the 23 at 18:00 UTC


230815Z 2309/2318 02009KT CAVOK
PROB30
TEMPO 2309/2313 SHRA SCT030TCU
No reported NOTAMs for that airfield.



MET'MAP, your aeronautical weather chart ! - Copyright ORBIFLY December 2007 - Disclaimer

ORBIFLY MET'MAP TEAM :

Programming & Development : Alexandra Zaïnal
Concept & Development : Baudouin d'Aumeries
Co-Development & Prog : Marc-Olivier Méhu
Technical & hardware support : Manuel Goepfert

Contact : metmap@orbifly.com




SOURCES & CREDITS :

   NOAA